Terminal Aerodrome Forecast
Issued by NWS

Home | Current Version | Previous Version | Graphics & Text | Print | Product List | Glossary On
Versions: 1 2 3 4 5 6 7 8 9 10 11 12 13 14 15 16 17 18
000
FTUS43 KGRB 222330
TAFCWA
TAF
KCWA 222330Z 2300/2324 26008KT P6SM SCT090 OVC120
      TEMPO 2301/2303 3SM TSRA OVC025CB
     FM230300 28002KT 5SM BR SCT120
     FM230900 30004KT 3SM BR BKN030
     FM231200 31006KT P6SM SCT050
     FM231500 33010KT P6SM BKN050=

USA.gov is the U.S. government's official web portal to all federal, state and local government web resources and services.